createdAt,value
2023-02-13T00:00:42.000Z,1021.3
2023-02-13T00:01:58.000Z,1021.3
2023-02-13T00:03:14.900Z,1021.3
2023-02-13T00:04:31.171Z,1021.3
2023-02-13T00:05:46.000Z,1021.3
2023-02-13T00:07:02.000Z,1021.3
2023-02-13T00:08:19.074Z,1021.3
2023-02-13T00:09:35.000Z,1021.3
2023-02-13T00:10:51.000Z,1021.3
2023-02-13T00:12:07.000Z,1021.3
2023-02-13T00:13:24.255Z,1021.3
2023-02-13T00:14:40.556Z,1021.2
2023-02-13T00:15:56.842Z,1021.2
2023-02-13T00:17:13.000Z,1021.2
2023-02-13T00:18:29.000Z,1021.2
2023-02-13T00:19:45.000Z,1021.2
2023-02-13T00:21:02.000Z,1021.2
2023-02-13T00:22:17.000Z,1021.1
2023-02-13T00:23:33.617Z,1021.2
2023-02-13T00:24:49.902Z,1021.1
2023-02-13T00:26:06.208Z,1021.1
2023-02-13T00:27:22.490Z,1021.1
2023-02-13T00:28:38.000Z,1021.1
2023-02-13T00:29:55.085Z,1021.1
2023-02-13T00:31:11.371Z,1021.1
2023-02-13T00:32:27.000Z,1021.1
2023-02-13T00:33:43.000Z,1021.1
2023-02-13T00:35:00.265Z,1021.1
2023-02-13T00:36:16.543Z,1021.1
2023-02-13T00:37:32.000Z,1021.1
2023-02-13T00:38:48.156Z,1021.2
2023-02-13T00:40:04.000Z,1021.1
2023-02-13T00:41:20.000Z,1021.1
2023-02-13T00:42:37.000Z,1021.1
2023-02-13T00:43:53.000Z,1021.1
2023-02-13T00:45:09.000Z,1021.1
2023-02-13T00:46:25.918Z,1021.1
2023-02-13T00:47:42.203Z,1021.1
2023-02-13T00:48:58.000Z,1021.1
2023-02-13T00:50:14.000Z,1021.1
2023-02-13T00:51:31.000Z,1021.1
2023-02-13T00:52:47.000Z,1021.1
2023-02-13T00:54:03.700Z,1021.1
2023-02-13T00:55:19.000Z,1021
2023-02-13T00:56:35.295Z,1021
2023-02-13T00:57:51.581Z,1021
2023-02-13T00:59:07.880Z,1021
2023-02-13T01:00:24.000Z,1021
2023-02-13T01:01:40.000Z,1021.1
2023-02-13T01:02:56.000Z,1021.1
2023-02-13T01:04:13.000Z,1021.1
2023-02-13T01:05:29.000Z,1021.1
2023-02-13T01:06:45.000Z,1021.1
2023-02-13T01:08:01.000Z,1021.1
2023-02-13T01:09:18.228Z,1021.1
2023-02-13T01:10:34.520Z,1021.1
2023-02-13T01:11:49.816Z,1021.1
2023-02-13T01:13:06.000Z,1021.1
2023-02-13T01:14:22.000Z,1021.1
2023-02-13T01:15:38.000Z,1021.1
2023-02-13T01:16:55.019Z,1021.2
2023-02-13T01:18:11.000Z,1021.1
2023-02-13T01:19:27.580Z,1021.1
2023-02-13T01:20:43.875Z,1021.1
2023-02-13T01:22:00.197Z,1021.1
2023-02-13T01:23:16.000Z,1021.1
2023-02-13T01:24:32.772Z,1021.1
2023-02-13T01:25:49.000Z,1021.1
2023-02-13T01:27:05.000Z,1021.1
2023-02-13T01:28:20.000Z,1021.1
2023-02-13T01:29:36.000Z,1021.1
2023-02-13T01:30:53.266Z,1021.1
2023-02-13T01:32:09.547Z,1021.1
2023-02-13T01:33:25.000Z,1021
2023-02-13T01:34:42.000Z,1021
2023-02-13T01:35:58.000Z,1021.1
2023-02-13T01:37:14.719Z,1021
2023-02-13T01:38:31.000Z,1021
2023-02-13T01:39:47.314Z,1021
2023-02-13T01:41:03.595Z,1021
2023-02-13T01:42:19.899Z,1021
2023-02-13T01:43:36.000Z,1021
2023-02-13T01:44:51.000Z,1021
2023-02-13T01:46:07.000Z,1021
2023-02-13T01:47:24.086Z,1021
2023-02-13T01:48:40.000Z,1020.9
2023-02-13T01:49:56.000Z,1021.1
2023-02-13T01:51:12.960Z,1021
2023-02-13T01:52:29.259Z,1021
2023-02-13T01:53:45.000Z,1021
2023-02-13T01:55:01.000Z,1021
2023-02-13T01:56:18.000Z,1021
2023-02-13T01:57:34.000Z,1021
2023-02-13T01:58:50.000Z,1021
2023-02-13T02:00:07.000Z,1021
2023-02-13T02:01:22.000Z,1021
2023-02-13T02:02:38.000Z,1021
2023-02-13T02:03:54.921Z,1020.9
2023-02-13T02:05:11.214Z,1021
2023-02-13T02:06:27.000Z,1020.9
2023-02-13T02:07:43.000Z,1020.9
2023-02-13T02:09:00.097Z,1020.9
2023-02-13T02:10:16.390Z,1020.9
2023-02-13T02:11:32.670Z,1020.9
2023-02-13T02:12:48.000Z,1020.8
2023-02-13T02:14:05.282Z,1020.8
2023-02-13T02:15:21.568Z,1020.8
2023-02-13T02:16:37.859Z,1020.8
2023-02-13T02:17:54.000Z,1020.8
2023-02-13T02:19:10.000Z,1020.8
2023-02-13T02:20:26.000Z,1020.8
2023-02-13T02:21:43.000Z,1020.8
2023-02-13T02:22:59.000Z,1020.8
2023-02-13T02:24:15.757Z,1020.7
2023-02-13T02:25:32.041Z,1020.8
2023-02-13T02:26:48.000Z,1020.7
2023-02-13T02:28:04.000Z,1020.8
2023-02-13T02:29:20.000Z,1020.7
2023-02-13T02:30:37.215Z,1020.7
2023-02-13T02:31:53.000Z,1020.8
2023-02-13T02:33:09.812Z,1020.7
2023-02-13T02:34:25.104Z,1020.8
2023-02-13T02:35:41.404Z,1020.8
2023-02-13T02:36:57.699Z,1020.8
2023-02-13T02:38:13.990Z,1020.7
2023-02-13T02:39:30.000Z,1020.7
2023-02-13T02:40:46.000Z,1020.8
2023-02-13T02:42:02.000Z,1020.8
2023-02-13T02:43:19.000Z,1020.7
2023-02-13T02:44:35.465Z,1020.7
2023-02-13T02:45:51.751Z,1020.7
2023-02-13T02:47:08.000Z,1020.7
2023-02-13T02:48:24.354Z,1020.7
2023-02-13T02:49:40.000Z,1020.8
2023-02-13T02:50:55.000Z,1020.8
2023-02-13T02:52:12.229Z,1020.7
2023-02-13T02:53:28.000Z,1020.7
2023-02-13T02:54:44.000Z,1020.7
2023-02-13T02:56:01.113Z,1020.8
2023-02-13T02:57:17.418Z,1020.8
2023-02-13T02:58:33.000Z,1020.8
2023-02-13T02:59:50.000Z,1020.8
2023-02-13T03:01:06.000Z,1020.8
2023-02-13T03:02:22.000Z,1020.8
2023-02-13T03:03:38.881Z,1020.8
2023-02-13T03:04:55.000Z,1020.8
2023-02-13T03:06:11.458Z,1020.8
2023-02-13T03:07:26.771Z,1020.8
2023-02-13T03:08:43.093Z,1020.8
2023-02-13T03:09:59.000Z,1020.8
2023-02-13T03:11:15.665Z,1020.8
2023-02-13T03:12:31.000Z,1020.8
2023-02-13T03:13:48.248Z,1020.8
2023-02-13T03:15:04.000Z,1020.8
2023-02-13T03:16:20.833Z,1020.8
2023-02-13T03:17:37.130Z,1020.8
2023-02-13T03:18:53.439Z,1020.8
2023-02-13T03:20:09.000Z,1020.8
2023-02-13T03:21:26.000Z,1020.8
2023-02-13T03:22:42.000Z,1020.8
2023-02-13T03:23:57.000Z,1020.8
2023-02-13T03:25:13.000Z,1020.8
2023-02-13T03:26:30.192Z,1020.8
2023-02-13T03:27:46.494Z,1020.8
2023-02-13T03:29:02.795Z,1020.8
2023-02-13T03:30:19.000Z,1020.9
2023-02-13T03:31:35.000Z,1020.8
2023-02-13T03:32:51.000Z,1020.9
2023-02-13T03:34:07.953Z,1020.8
2023-02-13T03:35:24.000Z,1020.9
2023-02-13T03:36:40.000Z,1020.9
2023-02-13T03:37:56.843Z,1020.9
2023-02-13T03:39:13.138Z,1020.8
2023-02-13T03:40:28.453Z,1020.8
2023-02-13T03:41:44.734Z,1020.8
2023-02-13T03:43:01.000Z,1020.9
2023-02-13T03:44:17.000Z,1020.9
2023-02-13T03:45:33.000Z,1020.9
2023-02-13T03:46:49.000Z,1020.9
2023-02-13T03:48:05.000Z,1020.9
2023-02-13T03:49:21.537Z,1020.9
2023-02-13T03:50:37.824Z,1020.9
2023-02-13T03:51:54.000Z,1020.9
2023-02-13T03:53:10.000Z,1020.9
2023-02-13T03:54:26.709Z,1020.9
2023-02-13T03:55:43.000Z,1020.9
2023-02-13T03:56:59.295Z,1020.9
2023-02-13T03:58:15.000Z,1020.9
2023-02-13T03:59:31.878Z,1020.9
2023-02-13T04:00:48.186Z,1021
2023-02-13T04:02:04.000Z,1021
2023-02-13T04:03:20.000Z,1021
2023-02-13T04:04:36.000Z,1021
2023-02-13T04:05:52.000Z,1021
2023-02-13T04:07:08.000Z,1021
2023-02-13T04:08:24.000Z,1021
2023-02-13T04:09:41.242Z,1021
2023-02-13T04:10:57.542Z,1020.9
2023-02-13T04:12:13.841Z,1021
2023-02-13T04:13:30.117Z,1021
2023-02-13T04:14:46.000Z,1021
2023-02-13T04:16:02.703Z,1021
2023-02-13T04:17:19.030Z,1020.9
2023-02-13T04:18:35.000Z,1020.9
2023-02-13T04:19:51.602Z,1021
2023-02-13T04:21:06.000Z,1021
2023-02-13T04:22:23.191Z,1021
2023-02-13T04:23:39.505Z,1021
2023-02-13T04:24:55.793Z,1021
2023-02-13T04:26:12.000Z,1020.9
2023-02-13T04:27:28.364Z,1020.9
2023-02-13T04:28:44.000Z,1020.9
2023-02-13T04:30:00.000Z,1021
2023-02-13T04:31:17.000Z,1020.9
2023-02-13T04:32:33.000Z,1021
2023-02-13T04:33:49.838Z,1020.9
2023-02-13T04:35:06.141Z,1021
2023-02-13T04:36:22.000Z,1021
2023-02-13T04:37:37.736Z,1021
2023-02-13T04:38:54.000Z,1021
2023-02-13T04:40:10.346Z,1020.9
2023-02-13T04:41:26.000Z,1020.9
2023-02-13T04:42:42.906Z,1020.9
2023-02-13T04:43:59.201Z,1020.9
2023-02-13T04:45:15.510Z,1020.9
2023-02-13T04:46:31.789Z,1020.9
2023-02-13T04:47:48.000Z,1020.9
2023-02-13T04:49:04.000Z,1020.9
2023-02-13T04:50:20.682Z,1020.9
2023-02-13T04:51:36.000Z,1020.9
2023-02-13T04:52:53.000Z,1020.9
2023-02-13T04:54:08.000Z,1020.9
2023-02-13T04:55:24.887Z,1020.9
2023-02-13T04:56:41.177Z,1020.9
2023-02-13T04:57:57.469Z,1020.9
2023-02-13T04:59:13.000Z,1020.9
2023-02-13T05:00:30.035Z,1020.9
2023-02-13T05:01:46.364Z,1020.9
2023-02-13T05:03:02.652Z,1020.9
2023-02-13T05:04:18.916Z,1020.9
2023-02-13T05:05:35.224Z,1020.9
2023-02-13T05:06:51.520Z,1020.9
2023-02-13T05:08:07.803Z,1020.9
2023-02-13T05:09:24.000Z,1020.9
2023-02-13T05:10:39.000Z,1020.9
2023-02-13T05:11:55.000Z,1020.9
2023-02-13T05:13:12.006Z,1020.9
2023-02-13T05:14:28.000Z,1021
2023-02-13T05:15:44.000Z,1021
2023-02-13T05:17:00.000Z,1021
2023-02-13T05:18:17.183Z,1021
2023-02-13T05:19:33.462Z,1021.1
2023-02-13T05:20:49.000Z,1021
2023-02-13T05:22:06.000Z,1021
2023-02-13T05:23:22.000Z,1021
2023-02-13T05:24:38.000Z,1021
2023-02-13T05:25:54.946Z,1021
2023-02-13T05:27:11.000Z,1021
2023-02-13T05:28:26.534Z,1021
2023-02-13T05:29:42.831Z,1021
2023-02-13T05:30:59.123Z,1021
2023-02-13T05:32:15.000Z,1021
2023-02-13T05:33:31.000Z,1020.9
2023-02-13T05:34:48.000Z,1021
2023-02-13T05:36:04.305Z,1020.9
2023-02-13T05:37:20.000Z,1020.9
2023-02-13T05:38:36.899Z,1020.9
2023-02-13T05:39:53.195Z,1020.9
2023-02-13T05:41:09.489Z,1020.9
2023-02-13T05:42:25.000Z,1020.9
2023-02-13T05:43:42.058Z,1020.9
2023-02-13T05:44:57.391Z,1020.9
2023-02-13T05:46:13.000Z,1020.9
2023-02-13T05:47:29.987Z,1020.9
2023-02-13T05:48:46.263Z,1020.9
2023-02-13T05:50:02.560Z,1021
2023-02-13T05:51:18.841Z,1021
2023-02-13T05:52:35.000Z,1021
2023-02-13T05:53:51.000Z,1021
2023-02-13T05:55:07.000Z,1021
2023-02-13T05:56:23.938Z,1020.9
2023-02-13T05:57:40.000Z,1020.9
2023-02-13T05:58:56.447Z,1021
2023-02-13T06:00:12.741Z,1020.9
2023-02-13T06:01:28.008Z,1020.9
2023-02-13T06:02:44.321Z,1020.9
2023-02-13T06:04:00.559Z,1020.9
2023-02-13T06:05:16.000Z,1021
2023-02-13T06:06:33.035Z,1021
2023-02-13T06:07:49.278Z,1021
2023-02-13T06:09:05.000Z,1021
2023-02-13T06:10:21.777Z,1021
2023-02-13T06:11:38.008Z,1021
2023-02-13T06:12:54.257Z,1020.9
2023-02-13T06:14:10.495Z,1020.9
2023-02-13T06:15:26.000Z,1020.9
2023-02-13T06:16:42.000Z,1020.9
2023-02-13T06:17:58.000Z,1020.9
2023-02-13T06:19:14.465Z,1020.9
2023-02-13T06:20:30.000Z,1020.9
2023-02-13T06:21:46.939Z,1021
2023-02-13T06:23:03.178Z,1021
2023-02-13T06:24:19.441Z,1021
2023-02-13T06:25:35.000Z,1021
2023-02-13T06:26:51.000Z,1021
2023-02-13T06:28:08.000Z,1021
2023-02-13T06:29:24.403Z,1021
2023-02-13T06:30:40.000Z,1021
2023-02-13T06:31:56.000Z,1021
2023-02-13T06:33:13.095Z,1021
2023-02-13T06:34:28.356Z,1021
2023-02-13T06:35:44.588Z,1021
2023-02-13T06:37:00.847Z,1021
2023-02-13T06:38:17.000Z,1021
2023-02-13T06:39:33.000Z,1021
2023-02-13T06:40:49.000Z,1021
2023-02-13T06:42:05.787Z,1021.1
2023-02-13T06:43:22.000Z,1021.1
2023-02-13T06:44:38.281Z,1021.2
2023-02-13T06:45:54.505Z,1021.2
2023-02-13T06:47:10.000Z,1021.1
2023-02-13T06:48:27.025Z,1021.2
2023-02-13T06:49:43.237Z,1021.1
2023-02-13T06:50:58.000Z,1021.2
2023-02-13T06:52:14.738Z,1021.2
2023-02-13T06:53:30.000Z,1021.1
2023-02-13T06:54:47.234Z,1021.1
2023-02-13T06:56:03.000Z,1021.2
2023-02-13T06:57:19.687Z,1021.1
2023-02-13T06:58:35.000Z,1021.1
2023-02-13T06:59:52.000Z,1021.1
2023-02-13T07:01:08.000Z,1021.1
2023-02-13T07:02:24.641Z,1021.1
2023-02-13T07:03:40.000Z,1021.1
2023-02-13T07:04:57.141Z,1021.1
2023-02-13T07:06:13.000Z,1021.2
2023-02-13T07:07:28.618Z,1021.2
2023-02-13T07:08:44.852Z,1021.2
2023-02-13T07:10:01.103Z,1021.3
2023-02-13T07:11:17.000Z,1021.3
2023-02-13T07:12:33.590Z,1021.3
2023-02-13T07:13:49.000Z,1021.3
2023-02-13T07:15:06.083Z,1021.3
2023-02-13T07:16:22.000Z,1021.3
2023-02-13T07:17:38.000Z,1021.4
2023-02-13T07:18:54.000Z,1021.4
2023-02-13T07:20:11.029Z,1021.4
2023-02-13T07:21:27.267Z,1021.4
2023-02-13T07:22:43.000Z,1021.4
2023-02-13T07:23:58.000Z,1021.4
2023-02-13T07:25:15.000Z,1021.4
2023-02-13T07:26:31.000Z,1021.3
2023-02-13T07:27:47.000Z,1021.4
2023-02-13T07:29:03.724Z,1021.4
2023-02-13T07:30:19.000Z,1021.4
2023-02-13T07:31:36.190Z,1021.4
2023-02-13T07:32:52.428Z,1021.4
2023-02-13T07:34:08.000Z,1021.4
2023-02-13T07:35:24.000Z,1021.4
2023-02-13T07:36:41.000Z,1021.4
2023-02-13T07:37:57.000Z,1021.5
2023-02-13T07:39:13.000Z,1021.5
2023-02-13T07:40:28.000Z,1021.4
2023-02-13T07:41:45.121Z,1021.5
2023-02-13T07:43:01.387Z,1021.5
2023-02-13T07:44:17.000Z,1021.5
2023-02-13T07:45:33.840Z,1021.5
2023-02-13T07:46:50.000Z,1021.5
2023-02-13T07:48:06.000Z,1021.5
2023-02-13T07:49:22.000Z,1021.4
2023-02-13T07:50:38.819Z,1021.4
2023-02-13T07:51:55.000Z,1021.5
2023-02-13T07:53:11.295Z,1021.5
2023-02-13T07:54:27.533Z,1021.5
2023-02-13T07:55:43.791Z,1021.5
2023-02-13T07:57:00.000Z,1021.6
2023-02-13T07:58:15.000Z,1021.5
2023-02-13T07:59:31.000Z,1021.5
2023-02-13T08:00:47.000Z,1021.5
2023-02-13T08:02:04.000Z,1021.5
2023-02-13T08:03:19.000Z,1021.5
2023-02-13T08:04:35.477Z,1021.5
2023-02-13T08:05:51.747Z,1021.5
2023-02-13T08:07:07.000Z,1021.5
2023-02-13T08:08:24.217Z,1021.5
2023-02-13T08:09:40.000Z,1021.5
2023-02-13T08:10:56.000Z,1021.6
2023-02-13T08:12:12.000Z,1021.5
2023-02-13T08:13:29.000Z,1021.5
2023-02-13T08:14:45.000Z,1021.6
2023-02-13T08:16:01.000Z,1021.6
2023-02-13T08:17:17.903Z,1021.6
2023-02-13T08:18:34.131Z,1021.6
2023-02-13T08:19:49.406Z,1021.6
2023-02-13T08:21:05.000Z,1021.6
2023-02-13T08:22:21.000Z,1021.7
2023-02-13T08:23:38.000Z,1021.6
2023-02-13T08:24:54.000Z,1021.6
2023-02-13T08:26:10.000Z,1021.6
2023-02-13T08:27:26.000Z,1021.6
2023-02-13T08:28:43.065Z,1021.5
2023-02-13T08:29:59.306Z,1021.5
2023-02-13T08:31:15.556Z,1021.6
2023-02-13T08:32:31.000Z,1021.5
2023-02-13T08:33:48.000Z,1021.5
2023-02-13T08:35:04.000Z,1021.5
2023-02-13T08:36:19.000Z,1021.5
2023-02-13T08:37:35.000Z,1021.5
2023-02-13T08:38:52.000Z,1021.4
2023-02-13T08:40:08.245Z,1021.5
2023-02-13T08:41:24.493Z,1021.5
2023-02-13T08:42:40.000Z,1021.5
2023-02-13T08:43:56.963Z,1021.5
2023-02-13T08:45:13.000Z,1021.5
2023-02-13T08:46:29.000Z,1021.6
2023-02-13T08:47:45.000Z,1021.5
2023-02-13T08:49:01.000Z,1021.5
2023-02-13T08:50:18.000Z,1021.5
2023-02-13T08:51:34.378Z,1021.5
2023-02-13T08:52:49.635Z,1021.5
2023-02-13T08:54:05.895Z,1021.5
2023-02-13T08:55:22.000Z,1021.5
2023-02-13T08:56:38.000Z,1021.6
2023-02-13T08:57:54.000Z,1021.6
2023-02-13T08:59:10.000Z,1021.6
2023-02-13T09:00:27.000Z,1021.6
2023-02-13T09:01:43.329Z,1021.6
2023-02-13T09:02:59.576Z,1021.6
2023-02-13T09:04:15.000Z,1021.6
2023-02-13T09:05:32.000Z,1021.6
2023-02-13T09:06:48.265Z,1021.6
2023-02-13T09:08:04.000Z,1021.7
2023-02-13T09:09:19.000Z,1021.7
2023-02-13T09:10:36.000Z,1021.7
2023-02-13T09:11:52.247Z,1021.7
2023-02-13T09:13:08.501Z,1021.7
2023-02-13T09:14:24.741Z,1021.7
2023-02-13T09:15:40.000Z,1021.7
2023-02-13T09:16:57.000Z,1021.7
2023-02-13T09:18:13.000Z,1021.7
2023-02-13T09:19:29.000Z,1021.7
2023-02-13T09:20:45.000Z,1021.7
2023-02-13T09:22:02.171Z,1021.8
2023-02-13T09:23:18.000Z,1021.8
2023-02-13T09:24:34.640Z,1021.8
2023-02-13T09:25:49.896Z,1021.8
2023-02-13T09:27:06.142Z,1021.8
2023-02-13T09:28:22.000Z,1021.8
2023-02-13T09:29:38.000Z,1021.7
2023-02-13T09:30:54.000Z,1021.7
2023-02-13T09:32:11.000Z,1021.7
2023-02-13T09:33:27.000Z,1021.7
2023-02-13T09:34:43.000Z,1021.7
2023-02-13T09:35:59.819Z,1021.6
2023-02-13T09:37:16.057Z,1021.7
2023-02-13T09:38:32.289Z,1021.6
2023-02-13T09:39:48.555Z,1021.7
2023-02-13T09:41:04.000Z,1021.7
2023-02-13T09:42:20.060Z,1021.7
2023-02-13T09:43:36.282Z,1021.7
2023-02-13T09:44:52.509Z,1021.7
2023-02-13T09:46:08.000Z,1021.7
2023-02-13T09:47:25.000Z,1021.8
2023-02-13T09:48:41.232Z,1021.8
2023-02-13T09:49:57.492Z,1021.8
2023-02-13T09:51:13.000Z,1021.7
2023-02-13T09:52:29.000Z,1021.7
2023-02-13T09:53:46.000Z,1021.7
2023-02-13T09:55:02.000Z,1021.7
2023-02-13T09:56:18.000Z,1021.7
2023-02-13T09:57:34.000Z,1021.7
2023-02-13T09:58:51.142Z,1021.7
2023-02-13T10:00:06.414Z,1021.7
2023-02-13T10:01:22.649Z,1021.7
2023-02-13T10:02:38.877Z,1021.7
2023-02-13T10:03:55.000Z,1021.8
2023-02-13T10:05:11.000Z,1021.8
2023-02-13T10:06:27.000Z,1021.8
2023-02-13T10:07:43.861Z,1021.8
2023-02-13T10:09:00.000Z,1021.8
2023-02-13T10:10:16.307Z,1021.8
2023-02-13T10:11:32.557Z,1021.8
2023-02-13T10:12:48.820Z,1021.8
2023-02-13T10:14:05.000Z,1021.8
2023-02-13T10:15:21.260Z,1021.7
2023-02-13T10:16:36.000Z,1021.7
2023-02-13T10:17:52.000Z,1021.7
2023-02-13T10:19:09.000Z,1021.7
2023-02-13T10:20:25.000Z,1021.7
2023-02-13T10:21:41.000Z,1021.6
2023-02-13T10:22:57.738Z,1021.6
2023-02-13T10:24:13.966Z,1021.5
2023-02-13T10:25:30.203Z,1021.5
2023-02-13T10:26:46.000Z,1021.6
2023-02-13T10:28:02.000Z,1021.5
2023-02-13T10:29:18.000Z,1021.6
2023-02-13T10:30:35.000Z,1021.5
2023-02-13T10:31:51.000Z,1021.5
2023-02-13T10:33:06.668Z,1021.5
2023-02-13T10:34:22.000Z,1021.5
2023-02-13T10:35:39.151Z,1021.4
2023-02-13T10:36:55.389Z,1021.4
2023-02-13T10:38:11.627Z,1021.5
2023-02-13T10:39:27.000Z,1021.5
2023-02-13T10:40:44.000Z,1021.5
2023-02-13T10:42:00.000Z,1021.4
2023-02-13T10:43:16.000Z,1021.5
2023-02-13T10:44:32.000Z,1021.4
2023-02-13T10:45:49.066Z,1021.4
2023-02-13T10:47:05.310Z,1021.4
2023-02-13T10:48:21.554Z,1021.4
2023-02-13T10:49:36.787Z,1021.3
2023-02-13T10:50:53.000Z,1021.3
2023-02-13T10:52:09.000Z,1021.3
2023-02-13T10:53:25.000Z,1021.3
2023-02-13T10:54:41.000Z,1021.3
2023-02-13T10:55:58.000Z,1021.3
2023-02-13T10:57:14.000Z,1021.3
2023-02-13T10:58:30.473Z,1021.3
2023-02-13T10:59:46.713Z,1021.3
2023-02-13T11:01:02.949Z,1021.3
2023-02-13T11:02:19.000Z,1021.3
2023-02-13T11:03:35.000Z,1021.3
2023-02-13T11:04:51.000Z,1021.2
2023-02-13T11:06:06.000Z,1021.2
2023-02-13T11:07:23.000Z,1021.2
2023-02-13T11:08:39.000Z,1021.2
2023-02-13T11:09:55.660Z,1021.1
2023-02-13T11:11:11.873Z,1021.1
2023-02-13T11:12:28.000Z,1021.2
2023-02-13T11:13:44.000Z,1021.2
2023-02-13T11:15:00.000Z,1021.2
2023-02-13T11:16:16.000Z,1021.1
2023-02-13T11:17:33.000Z,1021.1
2023-02-13T11:18:49.311Z,1021.1
2023-02-13T11:20:05.541Z,1021.1
2023-02-13T11:21:21.780Z,1021.1
2023-02-13T11:22:37.000Z,1021
2023-02-13T11:23:53.000Z,1021.1
2023-02-13T11:25:09.000Z,1021.1
2023-02-13T11:26:25.789Z,1021.1
2023-02-13T11:27:42.000Z,1021.1
2023-02-13T11:28:58.000Z,1021.1
2023-02-13T11:30:14.000Z,1021.1
2023-02-13T11:31:30.720Z,1021.1
2023-02-13T11:32:46.974Z,1021.2
2023-02-13T11:34:03.000Z,1021.2
2023-02-13T11:35:19.000Z,1021.1
2023-02-13T11:36:35.000Z,1021.2
2023-02-13T11:37:51.000Z,1021.2
2023-02-13T11:39:07.000Z,1021.2
2023-02-13T11:40:23.000Z,1021.2
2023-02-13T11:41:39.682Z,1021.2
2023-02-13T11:42:55.888Z,1021.2
2023-02-13T11:44:12.147Z,1021.1
2023-02-13T11:45:28.000Z,1021.2
2023-02-13T11:46:44.000Z,1021.1
2023-02-13T11:48:00.000Z,1021.1
2023-02-13T11:49:17.108Z,1021.1
2023-02-13T11:50:33.000Z,1021.1
2023-02-13T11:51:49.000Z,1021.1
2023-02-13T11:53:05.000Z,1021
2023-02-13T11:54:22.074Z,1021
2023-02-13T11:55:37.297Z,1021
2023-02-13T11:56:53.565Z,1020.9
2023-02-13T11:58:09.000Z,1021
2023-02-13T11:59:26.000Z,1021
2023-02-13T12:00:42.000Z,1021
2023-02-13T12:01:58.527Z,1021
2023-02-13T12:03:14.000Z,1021
2023-02-13T12:04:30.984Z,1021.1
2023-02-13T12:05:47.226Z,1021.1
2023-02-13T12:07:03.472Z,1021.1
2023-02-13T12:08:19.000Z,1021
2023-02-13T12:09:35.000Z,1021
2023-02-13T12:10:52.000Z,1021.1
2023-02-13T12:12:07.454Z,1021.1
2023-02-13T12:13:23.000Z,1021
2023-02-13T12:14:39.000Z,1021
2023-02-13T12:15:56.000Z,1021
2023-02-13T12:17:12.000Z,1021
2023-02-13T12:18:27.689Z,1021
2023-02-13T12:19:43.930Z,1021
2023-02-13T12:21:00.132Z,1020.9
2023-02-13T12:22:16.000Z,1020.9
2023-02-13T12:23:32.000Z,1020.9
2023-02-13T12:24:48.000Z,1020.8
2023-02-13T12:26:05.000Z,1020.9
2023-02-13T12:27:21.353Z,1020.9
2023-02-13T12:28:37.000Z,1020.8
2023-02-13T12:29:53.831Z,1020.8
2023-02-13T12:31:10.054Z,1020.8
2023-02-13T12:32:26.000Z,1020.8
2023-02-13T12:33:42.000Z,1020.8
2023-02-13T12:34:58.000Z,1020.9
2023-02-13T12:36:14.000Z,1020.8
2023-02-13T12:37:30.000Z,1020.8
2023-02-13T12:38:46.000Z,1020.8
2023-02-13T12:40:02.749Z,1020.8
2023-02-13T12:41:19.005Z,1020.8
2023-02-13T12:42:35.223Z,1020.7
2023-02-13T12:43:51.461Z,1020.7
2023-02-13T12:45:07.000Z,1020.7
2023-02-13T12:46:23.000Z,1020.7
2023-02-13T12:47:40.000Z,1020.7
2023-02-13T12:48:56.000Z,1020.7
2023-02-13T12:50:12.657Z,1020.7
2023-02-13T12:51:28.000Z,1020.7
2023-02-13T12:52:44.000Z,1020.7
2023-02-13T12:54:00.396Z,1020.7
2023-02-13T12:55:16.671Z,1020.7
2023-02-13T12:56:32.909Z,1020.6
2023-02-13T12:57:49.000Z,1020.6
2023-02-13T12:59:05.000Z,1020.6
2023-02-13T13:00:21.000Z,1020.6
2023-02-13T13:01:37.000Z,1020.6
2023-02-13T13:02:54.000Z,1020.6
2023-02-13T13:04:10.000Z,1020.6
2023-02-13T13:05:26.584Z,1020.6
2023-02-13T13:06:42.817Z,1020.6
2023-02-13T13:07:59.059Z,1020.6
2023-02-13T13:09:14.000Z,1020.6
2023-02-13T13:10:30.000Z,1020.6
2023-02-13T13:11:46.000Z,1020.6
2023-02-13T13:13:03.000Z,1020.6
2023-02-13T13:14:19.000Z,1020.6
2023-02-13T13:15:35.000Z,1020.6
2023-02-13T13:16:51.000Z,1020.6
2023-02-13T13:18:07.998Z,1020.6
2023-02-13T13:19:24.205Z,1020.6
2023-02-13T13:20:40.483Z,1020.6
2023-02-13T13:21:56.000Z,1020.5
2023-02-13T13:23:12.000Z,1020.6
2023-02-13T13:24:29.000Z,1020.6
2023-02-13T13:25:44.000Z,1020.6
2023-02-13T13:27:00.000Z,1020.6
2023-02-13T13:28:16.900Z,1020.6
2023-02-13T13:29:33.000Z,1020.5
2023-02-13T13:30:49.399Z,1020.5
2023-02-13T13:32:05.649Z,1020.6
2023-02-13T13:33:21.885Z,1020.5
2023-02-13T13:34:38.000Z,1020.5
2023-02-13T13:35:54.000Z,1020.5
2023-02-13T13:37:10.000Z,1020.6
2023-02-13T13:38:26.000Z,1020.6
2023-02-13T13:39:43.000Z,1020.5
2023-02-13T13:40:59.000Z,1020.6
2023-02-13T13:42:14.000Z,1020.5
2023-02-13T13:43:30.802Z,1020.5
2023-02-13T13:44:47.032Z,1020.6
2023-02-13T13:46:03.295Z,1020.6
2023-02-13T13:47:19.000Z,1020.5
2023-02-13T13:48:35.000Z,1020.5
2023-02-13T13:49:52.000Z,1020.6
2023-02-13T13:51:08.238Z,1020.6
2023-02-13T13:52:24.000Z,1020.6
2023-02-13T13:53:40.000Z,1020.6
2023-02-13T13:54:56.969Z,1020.6
2023-02-13T13:56:13.190Z,1020.6
2023-02-13T13:57:29.000Z,1020.6
2023-02-13T13:58:44.709Z,1020.6
2023-02-13T14:00:00.000Z,1020.6
2023-02-13T14:01:17.000Z,1020.6
2023-02-13T14:02:33.000Z,1020.6
2023-02-13T14:03:49.000Z,1020.6
2023-02-13T14:05:05.000Z,1020.6
2023-02-13T14:06:22.142Z,1020.5
2023-02-13T14:07:38.000Z,1020.5
2023-02-13T14:08:54.599Z,1020.5
2023-02-13T14:10:10.869Z,1020.5
2023-02-13T14:11:27.084Z,1020.5
2023-02-13T14:12:43.000Z,1020.5
2023-02-13T14:13:59.552Z,1020.5
2023-02-13T14:15:15.000Z,1020.4
2023-02-13T14:16:31.000Z,1020.5
2023-02-13T14:17:47.000Z,1020.5
2023-02-13T14:19:03.000Z,1020.5
2023-02-13T14:20:19.000Z,1020.5
2023-02-13T14:21:36.033Z,1020.5
2023-02-13T14:22:52.248Z,1020.6
2023-02-13T14:24:08.000Z,1020.5
2023-02-13T14:25:24.000Z,1020.5
2023-02-13T14:26:41.000Z,1020.6
2023-02-13T14:27:57.000Z,1020.6
2023-02-13T14:29:13.000Z,1020.6
2023-02-13T14:30:29.000Z,1020.6
2023-02-13T14:31:45.000Z,1020.6
2023-02-13T14:33:01.185Z,1020.5
2023-02-13T14:34:17.000Z,1020.5
2023-02-13T14:35:33.000Z,1020.6
2023-02-13T14:36:49.000Z,1020.6
2023-02-13T14:38:06.000Z,1020.6
2023-02-13T14:39:22.421Z,1020.5
2023-02-13T14:40:38.000Z,1020.5
2023-02-13T14:41:54.895Z,1020.6
2023-02-13T14:43:11.000Z,1020.6
2023-02-13T14:44:27.369Z,1020.5
2023-02-13T14:45:43.000Z,1020.5
2023-02-13T14:46:59.000Z,1020.5
2023-02-13T14:48:16.000Z,1020.5
2023-02-13T14:49:31.000Z,1020.4
2023-02-13T14:50:47.550Z,1020.4
2023-02-13T14:52:03.000Z,1020.5
2023-02-13T14:53:20.000Z,1020.5
2023-02-13T14:54:36.306Z,1020.4
2023-02-13T14:55:52.000Z,1020.4
2023-02-13T14:57:08.000Z,1020.4
2023-02-13T14:58:25.000Z,1020.4
2023-02-13T14:59:41.226Z,1020.4
2023-02-13T15:00:57.000Z,1020.4
2023-02-13T15:02:13.000Z,1020.3
2023-02-13T15:03:29.957Z,1020.4
2023-02-13T15:04:46.214Z,1020.3
2023-02-13T15:06:01.000Z,1020.3
2023-02-13T15:07:17.000Z,1020.3
2023-02-13T15:08:33.000Z,1020.3
2023-02-13T15:09:50.000Z,1020.3
2023-02-13T15:11:06.000Z,1020.2
2023-02-13T15:12:22.675Z,1020.2
2023-02-13T15:13:38.000Z,1020.1
2023-02-13T15:14:55.121Z,1020.1
2023-02-13T15:16:11.396Z,1020.1
2023-02-13T15:17:27.000Z,1020.2
2023-02-13T15:18:43.000Z,1020.1
2023-02-13T15:20:00.000Z,1020.2
2023-02-13T15:21:16.319Z,1020.1
2023-02-13T15:22:31.579Z,1020.2
2023-02-13T15:23:47.000Z,1020.2
2023-02-13T15:25:04.000Z,1020.2
2023-02-13T15:26:20.000Z,1020.2
2023-02-13T15:27:36.532Z,1020.1
2023-02-13T15:28:52.000Z,1020.1
2023-02-13T15:30:09.000Z,1020.1
2023-02-13T15:31:25.000Z,1020.1
2023-02-13T15:32:41.000Z,1020.1
2023-02-13T15:33:57.000Z,1020
2023-02-13T15:35:14.000Z,1020
2023-02-13T15:36:30.000Z,1020
2023-02-13T15:37:46.000Z,1020
2023-02-13T15:39:01.000Z,1020.1
2023-02-13T15:40:17.947Z,1020
2023-02-13T15:41:34.000Z,1020.1
2023-02-13T15:42:50.000Z,1020.1
2023-02-13T15:44:06.000Z,1020.1
2023-02-13T15:45:22.000Z,1020.1
2023-02-13T15:46:39.000Z,1020
2023-02-13T15:47:55.000Z,1020
2023-02-13T15:49:11.633Z,1020
2023-02-13T15:50:27.900Z,1020
2023-02-13T15:51:44.000Z,1020
2023-02-13T15:53:00.000Z,1020
2023-02-13T15:54:16.000Z,1019.9
2023-02-13T15:55:32.000Z,1019.9
2023-02-13T15:56:48.000Z,1019.9
2023-02-13T15:58:04.000Z,1019.9
2023-02-13T15:59:20.596Z,1019.9
2023-02-13T16:00:36.810Z,1019.8